Time;durP1;ratioP1;P1;durP2;ratioP2;P2;SDS_P1;SDS_P2;PMS_P1;PMS_P2;Temp;Humidity;BMP_temperature;BMP_pressure;BME280_temperature;BME280_humidity;BME280_pressure;Samples;Min_cycle;Max_cycle;Signal;HPM_P1;HPM_P2
2022/03/17 00:00:30;;;;;;;112.13;44.60;;;3.10;99.90;;;;;;4313521;28;658588;-86
2022/03/17 00:03:18;;;;;;;106.73;45.27;;;3.00;99.90;;;;;;4340077;28;659044;-87
2022/03/17 00:06:06;;;;;;;104.43;43.87;;;3.00;99.90;;;;;;4318412;28;659743;-85
2022/03/17 00:08:54;;;;;;;101.60;44.43;;;3.00;99.90;;;;;;4338540;28;659032;-87
2022/03/17 00:11:43;;;;;;;94.77;43.27;;;2.90;99.90;;;;;;4309609;28;659407;-87
2022/03/17 00:14:31;;;;;;;103.43;42.92;;;2.90;99.90;;;;;;4320437;28;658322;-86
2022/03/17 00:17:18;;;;;;;93.07;42.40;;;2.90;99.90;;;;;;4333225;28;659368;-87
2022/03/17 00:20:07;;;;;;;102.73;45.30;;;2.90;1.00;;;;;;4316639;28;657318;-87
2022/03/17 00:22:54;;;;;;;108.78;45.75;;;2.80;1.00;;;;;;4336064;28;657609;-87
2022/03/17 00:25:42;;;;;;;101.40;45.43;;;2.80;1.00;;;;;;4318675;28;657832;-87
2022/03/17 00:28:31;;;;;;;111.13;45.67;;;2.70;1.00;;;;;;4337351;28;657275;-88
2022/03/17 00:31:18;;;;;;;95.80;44.27;;;2.70;1.00;;;;;;4311548;28;658080;-87
2022/03/17 00:34:06;;;;;;;109.03;46.27;;;2.60;1.00;;;;;;4316350;28;656857;-86
2022/03/17 00:36:53;;;;;;;106.47;44.87;;;2.60;1.00;;;;;;4334551;28;657233;-88
2022/03/17 00:39:41;;;;;;;97.90;45.20;;;2.50;1.00;;;;;;4312307;28;657739;-87
2022/03/17 00:42:28;;;;;;;107.20;45.23;;;2.40;1.00;;;;;;4324450;28;656789;-86
2022/03/17 00:45:17;;;;;;;102.67;44.37;;;2.40;1.00;;;;;;4316780;28;657484;-86
2022/03/17 00:48:05;;;;;;;96.40;42.47;;;2.40;1.00;;;;;;4327474;28;657541;-86
2022/03/17 00:50:53;;;;;;;94.80;42.77;;;2.40;1.00;;;;;;4318969;28;656820;-86
2022/03/17 00:53:40;;;;;;;102.57;45.20;;;2.40;1.00;;;;;;4320321;28;656674;-86
2022/03/17 00:56:29;;;;;;;101.80;44.20;;;2.40;1.00;;;;;;4329934;28;657389;-87
2022/03/17 00:59:16;;;;;;;101.20;44.70;;;2.40;1.00;;;;;;4313453;28;657793;-87
2022/03/17 01:02:05;;;;;;;102.83;46.13;;;2.40;1.00;;;;;;4338488;28;658169;-87
2022/03/17 01:04:52;;;;;;;101.50;45.80;;;2.40;1.00;;;;;;4307264;28;657443;-87
2022/03/17 01:07:40;;;;;;;108.87;44.77;;;2.40;1.00;;;;;;4331236;28;657896;-86
2022/03/17 01:10:28;;;;;;;103.67;46.33;;;2.30;1.00;;;;;;4330549;28;658425;-87
2022/03/17 01:13:15;;;;;;;103.00;47.05;;;2.30;28.50;;;;;;4317234;28;657753;-86
2022/03/17 01:16:03;;;;;;;107.23;45.43;;;2.20;99.90;;;;;;4327310;28;659006;-87
2022/03/17 01:18:52;;;;;;;108.70;44.87;;;2.20;99.90;;;;;;4309783;28;658983;-87
2022/03/17 01:21:39;;;;;;;110.38;46.85;;;2.20;99.90;;;;;;4332274;28;658845;-87
2022/03/17 01:24:27;;;;;;;99.43;44.37;;;2.20;99.90;;;;;;4311516;28;659126;-87
2022/03/17 01:27:14;;;;;;;103.37;46.30;;;2.20;99.90;;;;;;4336235;28;657622;-88
2022/03/17 01:30:02;;;;;;;106.13;45.23;;;2.20;99.90;;;;;;4314027;28;658629;-87
2022/03/17 01:32:49;;;;;;;104.88;44.90;;;2.20;99.90;;;;;;4334992;28;658165;-88
2022/03/17 01:35:38;;;;;;;114.57;47.47;;;2.20;99.90;;;;;;4317428;28;658812;-87
2022/03/17 01:38:26;;;;;;;104.93;44.47;;;2.20;99.90;;;;;;4316999;28;658994;-87
2022/03/17 01:41:14;;;;;;;107.43;46.23;;;2.10;99.90;;;;;;4334577;28;659384;-89
2022/03/17 01:44:01;;;;;;;107.57;46.23;;;2.10;99.90;;;;;;4313509;28;658886;-88
2022/03/17 01:49:54;;;;;;;109.83;46.90;;;2.00;99.90;;;;;;4311311;28;658922;-88
2022/03/17 01:52:43;;;;;;;110.47;44.90;;;1.90;1.00;;;;;;4317657;28;658784;-88
2022/03/17 01:55:31;;;;;;;101.97;45.17;;;1.80;1.00;;;;;;4325432;28;657743;-87
2022/03/17 01:58:19;;;;;;;111.60;46.88;;;1.70;1.00;;;;;;4337595;28;657928;-87
2022/03/17 02:01:07;;;;;;;103.10;47.63;;;1.70;31.30;;;;;;4309633;28;657711;-87
2022/03/17 02:03:56;;;;;;;107.73;46.33;;;1.60;99.90;;;;;;4336640;28;658461;-88
2022/03/17 02:06:43;;;;;;;105.37;47.80;;;1.50;99.90;;;;;;4306003;28;658815;-88
2022/03/17 02:09:33;;;;;;;110.77;46.93;;;1.50;1.00;;;;;;4315719;28;658959;-88
2022/03/17 02:15:27;;;;;;;112.83;48.47;;;1.40;1.00;;;;;;4322934;28;657769;-87
2022/03/17 02:18:16;;;;;;;120.57;48.47;;;1.40;99.90;;;;;;4337497;28;657314;-88
2022/03/17 02:21:03;;;;;;;116.17;49.37;;;1.30;99.90;;;;;;4313399;28;658537;-88
2022/03/17 02:26:58;;;;;;;113.87;48.10;;;1.30;1.00;;;;;;4309995;28;658389;-88
2022/03/17 02:29:46;;;;;;;116.97;50.10;;;1.40;1.00;;;;;;4316542;28;657563;-88
2022/03/17 02:32:33;;;;;;;108.83;46.70;;;1.30;1.00;;;;;;4333729;28;657840;-87
2022/03/17 02:35:24;;;;;;;111.83;48.97;;;1.30;1.00;;;;;;4314911;28;657541;-87
2022/03/17 02:38:13;;;;;;;104.83;47.73;;;1.40;99.90;;;;;;4308165;28;658036;-87
2022/03/17 02:41:02;;;;;;;109.47;48.43;;;1.40;99.90;;;;;;4314199;28;658893;-87
2022/03/17 02:43:51;;;;;;;113.27;48.27;;;1.40;99.90;;;;;;4331902;28;658753;-85
2022/03/17 02:46:39;;;;;;;102.27;47.53;;;1.30;99.90;;;;;;4325657;28;659655;-87
2022/03/17 02:49:27;;;;;;;111.23;49.00;;;1.30;99.90;;;;;;4305700;28;658651;-86
2022/03/17 02:52:14;;;;;;;112.90;48.10;;;1.20;1.00;;;;;;4340428;28;658753;-87
2022/03/17 02:55:02;;;;;;;115.57;47.27;;;1.20;1.00;;;;;;4317899;28;657539;-87
2022/03/17 02:57:51;;;;;;;104.80;46.23;;;1.20;1.00;;;;;;4329738;28;657597;-86
2022/03/17 03:00:38;;;;;;;106.90;46.57;;;1.20;1.00;;;;;;4318128;28;658166;-88
2022/03/17 03:03:26;;;;;;;109.20;48.73;;;1.10;1.00;;;;;;4319727;28;657958;-87
2022/03/17 03:06:15;;;;;;;106.70;48.60;;;1.10;1.00;;;;;;4340309;28;658127;-88
2022/03/17 03:09:03;;;;;;;110.57;48.87;;;1.00;14.40;;;;;;4318608;28;658567;-87
2022/03/17 03:11:50;;;;;;;113.80;48.33;;;1.00;99.90;;;;;;4314426;28;658558;-86
2022/03/17 03:14:40;;;;;;;115.50;50.40;;;0.90;75.80;;;;;;4335602;28;659955;-87
2022/03/17 03:17:27;;;;;;;110.70;48.23;;;0.90;99.90;;;;;;4316118;28;658634;-86
2022/03/17 03:20:15;;;;;;;121.23;49.03;;;0.80;1.00;;;;;;4342825;28;658233;-87
2022/03/17 03:23:02;;;;;;;122.67;49.87;;;0.80;1.00;;;;;;4312976;28;657673;-87
2022/03/17 03:25:49;;;;;;;115.07;48.93;;;0.70;1.00;;;;;;4328793;28;657474;-86
2022/03/17 03:28:39;;;;;;;115.80;49.63;;;0.70;99.90;;;;;;4316121;28;658319;-87
2022/03/17 03:31:28;;;;;;;113.17;49.30;;;0.70;99.90;;;;;;4313168;28;658801;-86
2022/03/17 03:34:16;;;;;;;111.83;49.30;;;0.70;99.90;;;;;;4324652;28;660196;-85
2022/03/17 03:40:09;;;;;;;111.73;48.63;;;0.60;99.90;;;;;;4315154;28;658178;-87
2022/03/17 03:42:57;;;;;;;119.17;50.73;;;0.50;99.90;;;;;;4310816;28;658464;-86
2022/03/17 03:45:44;;;;;;;113.63;47.37;;;0.50;1.00;;;;;;4335567;28;658917;-87
2022/03/17 03:48:34;;;;;;;121.87;50.13;;;0.40;1.00;;;;;;4312484;28;658069;-86
2022/03/17 03:51:21;;;;;;;113.90;49.50;;;0.40;85.50;;;;;;4310718;28;657760;-87
2022/03/17 03:54:16;;;;;;;117.13;49.30;;;0.30;39.80;;;;;;4326848;28;658333;-87
2022/03/17 03:57:04;;;;;;;116.80;49.47;;;0.30;1.00;;;;;;4312959;28;658666;-86
2022/03/17 03:59:51;;;;;;;115.03;51.20;;;0.30;1.00;;;;;;4316647;28;657875;-87
2022/03/17 04:02:39;;;;;;;123.90;51.00;;;0.30;99.90;;;;;;4329018;28;658182;-87
2022/03/17 04:05:28;;;;;;;123.10;50.73;;;0.30;99.90;;;;;;4309560;28;658987;-86
2022/03/17 04:08:16;;;;;;;120.33;50.50;;;0.20;99.90;;;;;;4312519;28;658258;-86
2022/03/17 04:11:03;;;;;;;112.83;49.23;;;0.20;1.00;;;;;;4338845;28;659399;-87
2022/03/17 04:13:51;;;;;;;111.43;45.60;;;0.30;99.90;;;;;;4317356;28;657647;-86
2022/03/17 04:16:39;;;;;;;116.33;47.40;;;0.30;99.90;;;;;;4332817;28;658893;-87
2022/03/17 04:19:26;;;;;;;122.13;49.37;;;0.30;1.00;;;;;;4326373;28;658726;-86
2022/03/17 04:22:15;;;;;;;123.47;49.50;;;0.30;1.00;;;;;;4339964;28;658294;-86
2022/03/17 04:25:03;;;;;;;130.13;52.70;;;0.30;1.00;;;;;;4315687;28;658232;-86
2022/03/17 04:27:50;;;;;;;118.43;50.20;;;0.30;1.00;;;;;;4323018;28;657894;-85
2022/03/17 04:30:39;;;;;;;123.87;51.00;;;0.20;1.00;;;;;;4332164;28;658482;-87
2022/03/17 04:33:26;;;;;;;118.87;51.10;;;0.20;99.90;;;;;;4311722;28;657221;-86
2022/03/17 04:36:14;;;;;;;109.07;48.47;;;0.20;1.00;;;;;;4333887;28;658705;-87
2022/03/17 04:39:04;;;;;;;106.57;45.10;;;0.20;99.90;;;;;;4318732;28;657518;-86
2022/03/17 04:41:51;;;;;;;112.60;46.87;;;0.20;99.90;;;;;;4307769;28;658881;-86
2022/03/17 04:44:45;;;;;;;108.00;45.78;;;0.20;1.00;;;;;;4335906;28;659300;-87
2022/03/17 04:47:33;;;;;;;108.43;45.53;;;0.10;99.90;;;;;;4312771;28;657544;-86
2022/03/17 04:50:21;;;;;;;107.23;44.17;;;0.20;99.90;;;;;;4317674;28;658577;-86
2022/03/17 04:56:16;;;;;;;109.10;44.50;;;0.10;1.00;;;;;;4311147;28;658827;-86
2022/03/17 04:59:04;;;;;;;109.37;45.27;;;0.10;1.00;;;;;;4318671;28;658609;-87
2022/03/17 05:01:52;;;;;;;100.80;43.77;;;0.00;3.60;;;;;;4317337;28;657552;-86
2022/03/17 05:04:40;;;;;;;100.80;42.70;;;0.00;24.70;;;;;;4335060;28;657256;-87
2022/03/17 05:07:28;;;;;;;97.37;42.13;;;0.00;1.00;;;;;;4309951;28;659563;-86
2022/03/17 05:10:16;;;;;;;97.40;43.37;;;0.00;1.00;;;;;;4322240;28;656893;-86
2022/03/17 05:13:06;;;;;;;101.03;42.17;;;-0.10;1.00;;;;;;4340218;28;657068;-87
2022/03/17 05:15:53;;;;;;;97.27;43.00;;;-0.10;16.00;;;;;;4308934;28;658850;-86
2022/03/17 05:18:41;;;;;;;105.83;44.20;;;-0.10;99.90;;;;;;4321715;28;658485;-86
2022/03/17 05:21:29;;;;;;;104.50;43.97;;;-0.10;47.80;;;;;;4330873;28;659895;-85
2022/03/17 05:24:16;;;;;;;107.00;43.63;;;-0.10;1.00;;;;;;4319094;28;660617;-86
2022/03/17 05:27:04;;;;;;;107.30;43.33;;;-0.20;1.00;;;;;;4338516;28;659573;-86
2022/03/17 05:29:53;;;;;;;105.93;44.80;;;-0.20;99.90;;;;;;4320361;28;658737;-86
2022/03/17 05:32:41;;;;;;;111.90;45.77;;;-0.20;1.00;;;;;;4307892;28;660105;-85
2022/03/17 05:35:28;;;;;;;122.70;47.33;;;-0.20;1.00;;;;;;4338627;28;658703;-87
2022/03/17 05:38:16;;;;;;;109.77;44.33;;;-0.10;1.00;;;;;;4313350;28;659573;-87
2022/03/17 05:41:03;;;;;;;117.17;44.23;;;-0.10;1.00;;;;;;4330652;28;659303;-88
2022/03/17 05:43:51;;;;;;;117.57;46.67;;;-0.10;99.90;;;;;;4314121;28;658536;-87
2022/03/17 05:46:40;;;;;;;112.13;44.63;;;0.00;50.40;;;;;;4330721;28;659817;-88
2022/03/17 05:49:28;;;;;;;116.77;47.87;;;0.00;1.00;;;;;;4308228;28;658657;-88
2022/03/17 05:52:16;;;;;;;108.35;45.33;;;0.00;99.90;;;;;;4318442;28;658434;-87
2022/03/17 05:55:03;;;;;;;106.20;42.00;;;0.10;99.90;;;;;;4330479;28;659043;-88
2022/03/17 05:57:52;;;;;;;110.53;44.53;;;0.30;11.90;;;;;;4318471;28;658833;-87
2022/03/17 06:00:39;;;;;;;105.87;43.63;;;0.40;1.00;;;;;;4330317;28;658767;-88
2022/03/17 06:03:28;;;;;;;96.10;42.33;;;0.60;94.20;;;;;;4313720;28;657600;-87
2022/03/17 06:06:16;;;;;;;103.27;41.93;;;0.80;1.00;;;;;;4311838;28;657710;-87
2022/03/17 06:09:04;;;;;;;99.25;41.92;;;1.00;99.90;;;;;;4336759;28;657997;-87
2022/03/17 06:11:55;;;;;;;103.20;40.10;;;1.20;1.00;;;;;;4308102;28;657569;-87
2022/03/17 06:14:43;;;;;;;94.53;41.10;;;1.40;1.00;;;;;;4309037;28;657605;-86
2022/03/17 06:17:38;;;;;;;100.50;41.70;;;1.50;99.90;;;;;;4319700;28;656433;-87
2022/03/17 06:20:28;;;;;;;105.00;43.70;;;1.70;75.00;;;;;;4298684;28;658993;-86
2022/03/17 06:23:15;;;;;;;108.80;42.83;;;1.80;1.00;;;;;;4322961;28;658787;-86
2022/03/17 06:26:03;;;;;;;87.80;36.87;;;1.90;1.00;;;;;;4337816;28;658328;-86
2022/03/17 06:28:51;;;;;;;98.90;41.93;;;2.00;1.00;;;;;;4314435;28;656972;-86
2022/03/17 06:31:39;;;;;;;87.00;39.07;;;2.10;1.00;;;;;;4342012;28;657311;-86
2022/03/17 06:34:26;;;;;;;94.43;39.58;;;2.20;1.00;;;;;;4317692;28;657063;-86
2022/03/17 06:37:15;;;;;;;81.33;36.90;;;2.40;99.90;;;;;;4339810;28;656923;-86
2022/03/17 06:40:04;;;;;;;86.53;36.63;;;2.50;99.90;;;;;;4322470;28;658309;-86
2022/03/17 06:42:52;;;;;;;74.27;31.10;;;2.70;99.90;;;;;;4310665;28;658031;-86
2022/03/17 06:45:40;;;;;;;79.10;33.97;;;2.80;99.90;;;;;;4336494;28;657293;-86
2022/03/17 06:48:27;;;;;;;80.87;35.73;;;3.00;45.70;;;;;;4309541;28;657959;-85
2022/03/17 06:51:15;;;;;;;79.00;34.87;;;3.10;1.00;;;;;;4343599;28;657478;-87
2022/03/17 06:54:04;;;;;;;71.40;31.80;;;3.30;1.00;;;;;;4315273;28;656780;-85
2022/03/17 06:56:51;;;;;;;73.20;30.27;;;3.40;1.00;;;;;;4315870;28;656377;-86
2022/03/17 06:59:39;;;;;;;72.90;31.33;;;3.50;1.00;;;;;;4338511;28;656622;-86
2022/03/17 07:02:26;;;;;;;66.33;29.83;;;3.70;1.00;;;;;;4323705;28;656529;-86
2022/03/17 07:05:14;;;;;;;70.00;30.17;;;3.80;1.00;;;;;;4333160;28;656566;-86
2022/03/17 07:08:02;;;;;;;58.47;27.10;;;3.90;1.00;;;;;;4306875;28;656696;-85
2022/03/17 07:10:51;;;;;;;63.87;28.53;;;4.00;1.00;;;;;;4337872;28;656571;-86
2022/03/17 07:13:38;;;;;;;58.73;26.23;;;4.20;1.00;;;;;;4321283;28;657361;-87
2022/03/17 07:16:27;;;;;;;42.33;20.30;;;4.30;1.00;;;;;;4318404;28;657231;-85
2022/03/17 07:19:16;;;;;;;55.93;24.63;;;4.50;1.00;;;;;;4330907;28;656907;-87
2022/03/17 07:22:04;;;;;;;61.73;26.90;;;4.60;1.00;;;;;;4341935;28;657547;-86
2022/03/17 07:24:51;;;;;;;48.90;21.70;;;4.70;1.00;;;;;;4312606;28;656477;-86
2022/03/17 07:27:42;;;;;;;49.27;23.10;;;4.80;1.00;;;;;;4340018;28;656444;-85
2022/03/17 07:30:31;;;;;;;55.60;25.77;;;4.90;1.00;;;;;;4303888;28;656949;-86
2022/03/17 07:33:19;;;;;;;57.47;25.33;;;5.00;1.00;;;;;;4345752;28;657390;-85
2022/03/17 07:36:07;;;;;;;57.53;25.67;;;5.00;1.00;;;;;;4315813;28;656661;-85
2022/03/17 07:38:55;;;;;;;50.67;24.37;;;5.10;1.00;;;;;;4346145;28;655756;-84
2022/03/17 07:41:43;;;;;;;58.43;27.20;;;5.20;1.00;;;;;;4318866;28;657148;-85
2022/03/17 07:44:32;;;;;;;63.77;27.43;;;5.30;1.00;;;;;;4327980;28;656497;-85
2022/03/17 07:47:20;;;;;;;60.10;28.03;;;5.40;1.00;;;;;;4344520;28;656331;-85
2022/03/17 07:50:09;;;;;;;57.65;26.67;;;5.50;1.00;;;;;;4313911;28;656676;-85
2022/03/17 07:52:58;;;;;;;56.03;25.30;;;5.70;1.00;;;;;;4316885;28;656730;-85
2022/03/17 07:55:47;;;;;;;44.42;19.90;;;5.80;1.00;;;;;;4329587;28;656600;-85
2022/03/17 07:58:34;;;;;;;54.40;27.90;;;5.80;1.00;;;;;;4340790;28;656386;-86
2022/03/17 08:01:25;;;;;;;57.47;26.10;;;5.90;1.00;;;;;;4314749;28;656220;-86
2022/03/17 08:04:13;;;;;;;52.63;23.57;;;6.00;1.00;;;;;;4312074;28;656901;-86
2022/03/17 08:07:01;;;;;;;51.65;25.38;;;6.00;1.00;;;;;;4315184;28;656548;-86
2022/03/17 08:09:49;;;;;;;50.63;25.33;;;6.10;1.00;;;;;;4340995;28;657008;-86
2022/03/17 08:12:36;;;;;;;54.07;25.70;;;6.20;1.00;;;;;;4319318;28;656924;-86
2022/03/17 08:15:24;;;;;;;49.33;23.13;;;6.30;1.00;;;;;;4329629;28;657465;-85
2022/03/17 08:18:13;;;;;;;53.25;25.85;;;6.40;1.00;;;;;;4316960;28;657027;-86
2022/03/17 08:21:01;;;;;;;41.30;20.55;;;6.60;1.00;;;;;;4320751;28;656688;-87
2022/03/17 08:23:48;;;;;;;53.70;25.10;;;6.70;1.00;;;;;;4334745;28;656752;-86
2022/03/17 08:26:37;;;;;;;48.53;23.90;;;6.80;1.00;;;;;;4320265;28;656131;-86
2022/03/17 08:29:25;;;;;;;52.30;23.97;;;6.70;1.00;;;;;;4344162;28;656105;-86
2022/03/17 08:32:12;;;;;;;49.17;20.87;;;6.80;1.00;;;;;;4309816;28;657366;-86
2022/03/17 08:35:01;;;;;;;42.77;21.37;;;7.00;1.00;;;;;;4337703;28;656359;-87
2022/03/17 08:37:50;;;;;;;42.30;17.90;;;7.20;1.00;;;;;;4317029;28;656975;-85
2022/03/17 08:40:40;;;;;;;46.73;22.83;;;7.30;1.00;;;;;;4317126;28;656637;-86
2022/03/17 08:43:28;;;;;;;46.43;23.50;;;7.50;1.00;;;;;;4312345;28;656781;-85
2022/03/17 08:49:22;;;;;;;42.90;21.27;;;7.90;1.00;;;;;;4292330;28;656638;-87
2022/03/17 08:52:11;;;;;;;53.20;22.13;;;8.10;1.00;;;;;;4342317;28;656116;-86
2022/03/17 08:54:59;;;;;;;43.00;20.27;;;8.30;1.00;;;;;;4309806;28;657473;-86
2022/03/17 08:57:49;;;;;;;48.73;21.93;;;8.40;1.00;;;;;;4314467;28;658218;-86
2022/03/17 09:00:36;;;;;;;44.87;21.40;;;8.60;1.00;;;;;;4317245;28;656503;-87
2022/03/17 09:03:25;;;;;;;46.33;20.80;;;8.70;1.00;;;;;;4331821;28;656497;-86
2022/03/17 09:06:12;;;;;;;36.03;19.67;;;8.90;1.00;;;;;;4308301;28;656528;-87
2022/03/17 09:09:02;;;;;;;37.47;19.03;;;9.00;1.00;;;;;;4338658;28;656605;-87
2022/03/17 09:11:50;;;;;;;40.83;19.45;;;9.00;1.00;;;;;;4332343;28;656565;-85
2022/03/17 09:14:40;;;;;;;40.93;19.47;;;9.00;1.00;;;;;;4308492;28;656915;-86
2022/03/17 09:17:28;;;;;;;34.60;17.80;;;9.20;1.00;;;;;;4309344;28;657575;-86
2022/03/17 09:20:16;;;;;;;35.80;19.00;;;9.40;1.00;;;;;;4318395;28;656871;-87
2022/03/17 09:23:04;;;;;;;36.67;18.33;;;9.40;1.00;;;;;;4338049;28;657065;-87
2022/03/17 09:25:53;;;;;;;43.47;19.73;;;9.50;1.00;;;;;;4312830;28;656492;-87
2022/03/17 09:28:42;;;;;;;34.73;16.83;;;9.50;1.00;;;;;;4311564;28;656549;-87
2022/03/17 09:31:29;;;;;;;33.87;16.93;;;9.80;1.00;;;;;;4325994;28;656699;-85
2022/03/17 09:34:17;;;;;;;35.87;18.93;;;10.00;1.00;;;;;;4313182;28;657813;-87
2022/03/17 09:37:05;;;;;;;36.33;18.38;;;10.20;1.00;;;;;;4335902;28;657394;-87
2022/03/17 09:39:52;;;;;;;36.00;17.93;;;10.40;1.00;;;;;;4314007;28;657728;-86
2022/03/17 09:42:41;;;;;;;32.70;15.33;;;10.50;1.00;;;;;;4336994;28;657322;-86
2022/03/17 09:45:30;;;;;;;34.10;17.43;;;10.60;1.00;;;;;;4314938;28;657492;-86
2022/03/17 09:48:19;;;;;;;37.43;17.50;;;10.60;1.00;;;;;;4314964;28;658288;-87
2022/03/17 09:51:07;;;;;;;44.13;19.87;;;10.60;1.00;;;;;;4311082;28;657734;-87
2022/03/17 09:53:59;;;;;;;45.93;18.27;;;10.50;1.00;;;;;;4333857;28;657358;-87
2022/03/17 09:56:47;;;;;;;39.10;17.40;;;10.60;1.00;;;;;;4314961;28;657859;-88
2022/03/17 09:59:36;;;;;;;36.87;18.00;;;10.60;1.00;;;;;;4336497;28;657667;-86
2022/03/17 10:02:24;;;;;;;39.90;18.73;;;10.60;1.00;;;;;;4315624;28;657520;-86
2022/03/17 10:05:11;;;;;;;31.87;15.50;;;10.70;1.00;;;;;;4314478;28;657713;-86
2022/03/17 10:07:59;;;;;;;38.47;19.00;;;10.90;1.00;;;;;;4329071;28;658017;-87
2022/03/17 10:10:47;;;;;;;37.40;17.90;;;11.00;1.00;;;;;;4318839;28;657466;-87
2022/03/17 10:13:41;;;;;;;36.13;18.47;;;11.00;1.00;;;;;;4334740;28;657834;-86
2022/03/17 10:16:31;;;;;;;31.93;16.17;;;11.00;1.00;;;;;;4312633;28;657304;-86
2022/03/17 10:19:18;;;;;;;35.43;17.70;;;11.00;1.00;;;;;;4313938;28;658561;-87
2022/03/17 10:22:12;;;;;;;36.23;18.40;;;11.10;1.00;;;;;;4316735;28;657758;-87
2022/03/17 10:24:59;;;;;;;32.57;17.03;;;11.50;1.00;;;;;;4315301;28;657398;-87
2022/03/17 10:27:49;;;;;;;39.10;18.67;;;11.60;1.00;;;;;;4311219;28;657935;-88
2022/03/17 10:30:37;;;;;;;35.67;18.23;;;11.60;1.00;;;;;;4317317;28;657417;-87
2022/03/17 10:33:28;;;;;;;38.47;18.13;;;11.80;1.00;;;;;;4332740;28;657285;-87
2022/03/17 10:36:21;;;;;;;34.17;17.47;;;12.10;1.00;;;;;;4316170;28;657838;-87
2022/03/17 10:39:09;;;;;;;33.57;17.57;;;12.30;1.00;;;;;;4313684;28;658017;-87
2022/03/17 10:41:57;;;;;;;34.67;18.10;;;12.40;1.00;;;;;;4313926;28;657769;-87
2022/03/17 10:44:49;;;;;;;37.27;18.00;;;12.40;1.00;;;;;;4340608;28;657977;-87
2022/03/17 10:47:38;;;;;;;39.63;18.47;;;12.40;1.00;;;;;;4312450;28;657742;-87
2022/03/17 10:50:28;;;;;;;37.10;18.13;;;12.40;1.00;;;;;;4328553;28;657786;-87
2022/03/17 10:53:15;;;;;;;30.67;16.63;;;12.70;1.00;;;;;;4317719;28;658247;-89
2022/03/17 10:56:11;;;;;;;31.80;17.17;;;12.90;1.00;;;;;;4338282;28;657743;-87
2022/03/17 10:59:00;;;;;;;30.13;17.23;;;12.90;1.00;;;;;;4320077;28;657647;-87
2022/03/17 11:01:48;;;;;;;35.47;17.70;;;12.80;1.00;;;;;;4313199;28;657871;-87
2022/03/17 11:04:36;;;;;;;36.67;18.93;;;12.80;1.00;;;;;;4313635;28;658181;-87
2022/03/17 11:07:25;;;;;;;31.83;15.97;;;13.30;1.00;;;;;;4333191;28;657934;-87
2022/03/17 11:10:15;;;;;;;30.63;15.50;;;13.80;1.00;;;;;;4319078;28;658328;-87
2022/03/17 11:13:08;;;;;;;30.40;14.33;;;14.00;1.00;;;;;;4316004;28;658025;-88
2022/03/17 11:15:58;;;;;;;27.77;14.70;;;14.00;1.00;;;;;;4316220;28;657763;-88
2022/03/17 11:18:46;;;;;;;27.27;14.20;;;14.20;1.00;;;;;;4327172;28;657956;-88
2022/03/17 11:21:33;;;;;;;30.20;14.83;;;14.60;1.00;;;;;;4342866;28;658363;-88
2022/03/17 11:24:23;;;;;;;31.97;15.73;;;14.30;1.00;;;;;;4321108;28;657801;-88
2022/03/17 11:27:11;;;;;;;31.43;14.63;;;14.40;1.00;;;;;;4318408;28;657478;-88
2022/03/17 11:30:06;;;;;;;25.90;13.93;;;14.50;1.00;;;;;;4339941;28;659199;-87
2022/03/17 11:32:55;;;;;;;24.00;13.00;;;14.60;1.00;;;;;;4307431;28;657696;-85
2022/03/17 11:35:43;;;;;;;23.57;12.70;;;14.90;1.00;;;;;;4319018;28;658180;-88
2022/03/17 11:38:32;;;;;;;26.37;13.10;;;15.30;1.00;;;;;;4312973;28;657900;-86
2022/03/17 11:41:23;;;;;;;31.60;12.80;;;15.50;1.00;;;;;;4339221;28;657324;-85
2022/03/17 11:44:10;;;;;;;26.93;13.77;;;15.80;1.00;;;;;;4299408;28;658202;-86
2022/03/17 11:46:58;;;;;;;19.60;11.40;;;15.90;1.00;;;;;;4331661;28;657942;-88
2022/03/17 11:49:46;;;;;;;25.63;12.63;;;16.10;1.00;;;;;;4324045;28;658364;-87
2022/03/17 11:52:34;;;;;;;25.33;12.57;;;16.10;1.00;;;;;;4338129;28;658271;-87
2022/03/17 11:55:38;;;;;;;25.90;13.80;;;16.40;1.00;;;;;;4327214;28;657735;-88
2022/03/17 11:58:33;;;;;;;22.23;13.70;;;16.40;1.00;;;;;;4311347;28;657866;-88
2022/03/17 12:01:25;;;;;;;28.47;13.90;;;16.80;1.00;;;;;;4294113;28;657867;-87
2022/03/17 12:04:22;;;;;;;23.93;14.57;;;16.90;1.00;;;;;;4313104;28;658104;-88
2022/03/17 12:07:10;;;;;;;27.07;14.47;;;16.90;1.00;;;;;;4313714;28;657630;-88
2022/03/17 12:09:58;;;;;;;27.48;14.82;;;16.60;1.00;;;;;;4312341;28;658183;-87
2022/03/17 12:12:46;;;;;;;24.50;14.93;;;17.00;1.00;;;;;;4328877;28;657415;-87
2022/03/17 12:15:39;;;;;;;27.63;14.53;;;16.90;1.00;;;;;;4329288;28;658712;-87
2022/03/17 12:18:28;;;;;;;28.03;15.40;;;16.90;1.00;;;;;;4316951;28;657945;-87
2022/03/17 12:21:15;;;;;;;23.93;14.33;;;16.80;1.00;;;;;;4324811;28;657627;-86
2022/03/17 12:24:03;;;;;;;28.00;14.33;;;16.90;1.00;;;;;;4332863;28;657949;-86
2022/03/17 12:26:57;;;;;;;23.00;14.23;;;16.60;1.00;;;;;;4309866;28;657756;-87
2022/03/17 12:29:48;;;;;;;25.70;14.30;;;16.60;1.00;;;;;;4328595;28;657621;-86
2022/03/17 12:32:39;;;;;;;19.27;12.63;;;16.60;1.00;;;;;;4327273;28;657690;-87
2022/03/17 12:35:27;;;;;;;23.17;12.23;;;16.40;1.00;;;;;;4313649;28;657434;-86
2022/03/17 12:38:16;;;;;;;21.10;11.80;;;16.30;1.00;;;;;;4334519;28;657645;-86
2022/03/17 12:41:04;;;;;;;25.90;12.63;;;15.70;1.00;;;;;;4332475;28;658160;-86
2022/03/17 12:43:51;;;;;;;23.23;12.27;;;15.90;1.00;;;;;;4314962;28;657492;-86
2022/03/17 12:46:39;;;;;;;25.97;11.40;;;16.40;1.00;;;;;;4331154;28;657580;-86
2022/03/17 12:49:28;;;;;;;25.90;12.07;;;16.60;1.00;;;;;;4319071;28;657809;-86
2022/03/17 12:52:18;;;;;;;22.07;11.43;;;17.10;1.00;;;;;;4320053;28;657660;-86
2022/03/17 12:55:08;;;;;;;19.90;11.73;;;17.20;1.00;;;;;;4318551;28;657935;-86
2022/03/17 12:57:56;;;;;;;18.80;10.97;;;17.20;1.00;;;;;;4312317;28;657751;-86
2022/03/17 13:00:44;;;;;;;23.83;12.30;;;16.50;1.00;;;;;;4338912;28;658222;-86
2022/03/17 13:03:31;;;;;;;20.53;11.50;;;16.00;1.00;;;;;;4319078;28;657496;-86
2022/03/17 13:09:34;;;;;;;20.47;12.13;;;15.70;1.00;;;;;;4288556;29;657529;-86
2022/03/17 13:15:28;;;;;;;23.03;12.03;;;15.20;1.00;;;;;;4280973;29;657471;-86
2022/03/17 13:18:16;;;;;;;20.00;11.47;;;14.90;1.00;;;;;;4282771;29;657709;-87
2022/03/17 13:21:04;;;;;;;21.83;12.23;;;14.90;1.00;;;;;;4302200;29;658489;-85
2022/03/17 13:23:53;;;;;;;18.97;12.03;;;14.70;1.00;;;;;;4275854;29;657436;-86
2022/03/17 13:26:41;;;;;;;20.53;10.67;;;14.80;1.00;;;;;;4287919;29;657760;-86
2022/03/17 13:29:29;;;;;;;21.17;10.83;;;14.70;1.00;;;;;;4309643;29;657745;-86
2022/03/17 13:32:17;;;;;;;20.77;10.47;;;14.40;1.00;;;;;;4284191;29;657789;-86
2022/03/17 13:35:06;;;;;;;18.83;11.17;;;14.30;1.00;;;;;;4305338;29;658085;-86
2022/03/17 13:38:04;;;;;;;21.65;10.80;;;14.10;1.00;;;;;;4279208;29;657814;-86
2022/03/17 13:40:55;;;;;;;18.00;9.67;;;14.10;1.00;;;;;;4288233;29;657228;-86
2022/03/17 13:43:46;;;;;;;22.30;10.67;;;13.60;1.00;;;;;;4289079;29;657311;-86
2022/03/17 13:46:39;;;;;;;23.67;11.33;;;13.40;1.00;;;;;;4284091;29;657946;-86
2022/03/17 13:49:33;;;;;;;22.90;11.43;;;13.00;1.00;;;;;;4287495;28;658138;-86
2022/03/17 13:52:21;;;;;;;22.10;11.70;;;12.70;1.00;;;;;;4306031;28;658281;-85
2022/03/17 13:55:10;;;;;;;22.27;11.30;;;12.20;1.00;;;;;;4331334;28;657647;-86
2022/03/17 13:58:10;;;;;;;20.20;11.10;;;11.90;1.00;;;;;;4318182;28;658241;-86
2022/03/17 14:01:07;;;;;;;23.20;11.80;;;11.60;1.00;;;;;;4315737;28;657659;-85
2022/03/17 14:03:59;;;;;;;19.13;10.80;;;11.30;1.00;;;;;;4322869;28;657318;-86
2022/03/17 14:06:46;;;;;;;21.23;11.57;;;11.10;1.00;;;;;;4314632;28;657746;-86
2022/03/17 14:09:34;;;;;;;25.53;12.17;;;10.80;1.00;;;;;;4328551;28;658413;-85
2022/03/17 14:12:21;;;;;;;26.67;12.03;;;10.40;1.00;;;;;;4316078;28;657301;-85
2022/03/17 14:15:11;;;;;;;27.57;12.20;;;10.20;1.00;;;;;;4341668;28;657926;-86
2022/03/17 14:21:00;;;;;;;31.40;13.83;;;10.00;1.00;;;;;;4314629;28;657820;-86
2022/03/17 14:27:07;;;;;;;25.57;12.00;;;9.80;1.00;;;;;;4238267;29;657168;-86
2022/03/17 14:29:54;;;;;;;22.47;11.53;;;9.60;1.00;;;;;;4271141;29;656769;-85
2022/03/17 14:32:44;;;;;;;21.80;11.20;;;9.40;1.00;;;;;;4265980;29;657315;-85
2022/03/17 14:35:33;;;;;;;23.48;12.10;;;9.30;1.00;;;;;;4250400;29;656645;-85
2022/03/17 14:38:21;;;;;;;19.13;10.67;;;9.30;1.00;;;;;;4265008;29;656687;-85
2022/03/17 14:41:11;;;;;;;21.47;11.40;;;9.10;1.00;;;;;;4278479;29;657012;-86
2022/03/17 14:43:59;;;;;;;19.80;10.80;;;9.10;1.00;;;;;;4252928;29;656640;-85
2022/03/17 14:46:47;;;;;;;29.83;11.20;;;8.90;1.00;;;;;;4256693;29;656585;-86